USNN 270430Z 02004MPS 9999 -SHSN BKN024CB M00/M04 Q1015 R03/0///65 NOSIG RMK QFE758
QNH:(hPa/inHg/mmHg)1015 / 29.97 / 761
QFE:(hPa/inHg/mmHg)1008 / 29.78 / 756
Temperature-0
Dew Point-4
Visibility> 10000
WeatherLight Showers Snow
Cloud CoverBKN (2400);
Transition Height800 m./2900 ft.
Transition LevelFL40
SQUAWK